Pretty Lady — 9HVY9 — position and weather

sailwx.info

Track history (hours):
 
Tides and Currents Weather Stations Pressure Air Temp Water Temp Dewpoint Dewpoint Depression Visibility Wind Speed Wind Dir Waves Ship Positions

Pretty Lady

Last reported at 2017-Jun-23 23:09 UTC. Time now 2017-Jun-29 11:04 UTC.
Position S 24°17' W 046°01'.

Length 189 m; draft 11.5 m.

Type: Cargo ship. MMSI: 249617000.

Date/timePositionNaut miles runAvg speedWind from/ knotsBaromVisibWave heightAir tempDewpointWater temp
2017-Jun-23 23:09S 24°17' W 046°01'211.7
2017-Jun-23 23:00S 24°17' W 046°02'611.7
2017-Jun-23 22:30S 24°16' W 046°09'611.6
2017-Jun-23 22:00S 24°16' W 046°15'510.9
2017-Jun-23 21:30S 24°15' W 046°21'510.3
2017-Jun-23 21:00S 24°10' W 046°24'611.0
2017-Jun-23 20:30S 24°05' W 046°22'510.2
2017-Jun-23 20:00S 24°00' W 046°20'3 6.8
2017-Jun-23 19:30S 23°58' W 046°18'2 0.1
2017-Jun-22 20:09S 23°57' W 046°19'0 0.0
2017-Jun-22 19:57S 23°57' W 046°19'0 0.0
2017-Jun-22 19:15S 23°57' W 046°19'0 0.0
2017-Jun-22 18:57S 23°57' W 046°19'0 0.0
2017-Jun-22 18:26S 23°57' W 046°19'0 0.0
2017-Jun-22 17:56S 23°57' W 046°19'0 0.0
2017-Jun-22 17:20S 23°57' W 046°19'0 0.0
2017-Jun-22 16:59S 23°57' W 046°19'0 0.0
2017-Jun-22 16:23S 23°57' W 046°19'0 0.0
2017-Jun-22 14:44S 23°57' W 046°19'0 0.0
2017-Jun-22 14:26S 23°57' W 046°19'0 0.0
2017-Jun-22 13:26S 23°57' W 046°19'0 0.5
2017-Jun-22 12:53S 23°57' W 046°19'3 6.7
2017-Jun-22 12:30S 23°59' W 046°17'4 7.5
2017-Jun-22 12:01S 24°01' W 046°21'5 9.2
2017-Jun-22 11:31S 24°05' W 046°22'5 9.5
2017-Jun-22 11:01S 24°10' W 046°20'1 1.1
2017-Jun-22 10:28S 24°09' W 046°20'0 0.0
2017-Jun-22 09:58S 24°09' W 046°20'0 0.0
2017-Jun-22 09:28S 24°09' W 046°20'0 0.0
2017-Jun-22 08:55S 24°09' W 046°20'0 0.0
2017-Jun-22 08:25S 24°09' W 046°20'0 0.0
2017-Jun-22 07:58S 24°09' W 046°20'0 0.0
2017-Jun-22 07:25S 24°09' W 046°20'0 0.0
2017-Jun-22 06:55S 24°09' W 046°20'0 0.0
2017-Jun-22 06:25S 24°09' W 046°20'0 0.0
2017-Jun-22 05:55S 24°09' W 046°20'0 0.0
2017-Jun-22 05:25S 24°09' W 046°20'0 0.0
2017-Jun-22 04:55S 24°09' W 046°20'0 0.0
2017-Jun-22 04:28S 24°09' W 046°20'0 0.1
2017-Jun-22 03:58S 24°09' W 046°20'0 0.0
2017-Jun-22 03:10S 24°09' W 046°20'0 0.1
2017-Jun-22 02:58S 24°09' W 046°20'0 0.0
2017-Jun-22 02:28S 24°09' W 046°20'0 0.0
2017-Jun-22 01:55S 24°09' W 046°20'0 0.0
2017-Jun-22 01:22S 24°09' W 046°20'0 0.0
2017-Jun-22 00:58S 24°09' W 046°20'0 0.0
2017-Jun-22 00:25S 24°09' W 046°20'0 0.0
2017-Jun-21 23:58S 24°09' W 046°20'0 0.0
2017-Jun-21 23:28S 24°09' W 046°20'0 0.0
2017-Jun-21 22:55S 24°09' W 046°20'0 0.0
2017-Jun-21 22:25S 24°09' W 046°20'0 0.0
2017-Jun-21 21:55S 24°09' W 046°20'0 0.0
2017-Jun-21 21:25S 24°09' W 046°20'0 0.0
2017-Jun-21 20:58S 24°09' W 046°20'0 0.0
2017-Jun-21 20:19S 24°09' W 046°20'0 0.0
2017-Jun-21 19:55S 24°09' W 046°20'0 0.0
2017-Jun-21 19:28S 24°09' W 046°20'0 0.0
2017-Jun-21 18:55S 24°09' W 046°20'0 0.0
2017-Jun-21 18:22S 24°09' W 046°20'0 0.0
2017-Jun-21 17:58S 24°09' W 046°20'0 0.1
2017-Jun-21 17:28S 24°09' W 046°20'0 0.0
2017-Jun-21 16:55S 24°09' W 046°20'0 0.0
2017-Jun-21 16:25S 24°09' W 046°20'0 0.0
2017-Jun-21 15:55S 24°09' W 046°20'0 0.1
2017-Jun-21 15:25S 24°09' W 046°20'0 0.0
2017-Jun-21 14:55S 24°09' W 046°20'0 0.1
2017-Jun-21 14:25S 24°09' W 046°20'0 0.0
2017-Jun-21 13:19S 24°09' W 046°20'0 0.1
2017-Jun-21 12:58S 24°09' W 046°20'0 0.0
2017-Jun-21 12:31S 24°09' W 046°20'0 0.2
2017-Jun-21 12:00S 24°09' W 046°20'0 0.0
2017-Jun-21 11:27S 24°09' W 046°20'0 0.0
2017-Jun-21 11:00S 24°09' W 046°20'0 0.1
2017-Jun-21 10:30S 24°09' W 046°19'0 0.1
2017-Jun-21 10:00S 24°09' W 046°20'0 0.0
2017-Jun-21 09:30S 24°09' W 046°20'0 0.0
2017-Jun-21 09:00S 24°09' W 046°20'0 0.0
2017-Jun-21 08:24S 24°09' W 046°20'0 0.1
2017-Jun-21 08:00S 24°09' W 046°20'0 0.0
2017-Jun-21 07:24S 24°09' W 046°20'0 0.0
2017-Jun-21 07:00S 24°09' W 046°20'0 0.0
2017-Jun-21 06:30S 24°09' W 046°20'0 0.0
2017-Jun-21 06:00S 24°09' W 046°20'0 0.1
2017-Jun-21 05:30S 24°09' W 046°20'0 0.0
2017-Jun-21 05:00S 24°09' W 046°20'0 0.0
2017-Jun-21 04:27S 24°09' W 046°20'0 0.0
2017-Jun-21 04:00S 24°09' W 046°20'0 0.0
2017-Jun-21 03:30S 24°09' W 046°20'0 0.0
2017-Jun-21 03:00S 24°09' W 046°20'0 0.0
2017-Jun-21 02:30S 24°09' W 046°20'0 0.0
2017-Jun-21 02:00S 24°09' W 046°20'0 0.0
2017-Jun-21 01:21S 24°09' W 046°19'0 0.1
2017-Jun-21 01:00S 24°09' W 046°20'0 0.1
2017-Jun-21 00:30S 24°09' W 046°19'0 0.0
2017-Jun-20 23:57S 24°09' W 046°19'0 0.0
2017-Jun-20 23:30S 24°09' W 046°19'0 0.0
2017-Jun-20 23:00S 24°09' W 046°20'0 0.0
2017-Jun-20 22:30S 24°09' W 046°19'0 0.0
2017-Jun-20 22:00S 24°09' W 046°19'0 0.0
2017-Jun-20 21:24S 24°09' W 046°19'0 0.0
2017-Jun-20 21:00S 24°09' W 046°19'0 0.0
2017-Jun-20 20:30S 24°09' W 046°19'0 0.0
2017-Jun-20 20:00S 24°09' W 046°19'0 0.0
2017-Jun-20 19:27S 24°09' W 046°19'0 0.0
2017-Jun-20 18:54S 24°09' W 046°19'0 0.0
2017-Jun-20 18:30S 24°09' W 046°19'0 0.0
2017-Jun-20 18:00S 24°09' W 046°19'0 0.0
2017-Jun-20 17:24S 24°09' W 046°19'0 0.0
2017-Jun-20 17:00S 24°09' W 046°19'0 0.0
2017-Jun-20 16:30S 24°09' W 046°19'0 0.0
2017-Jun-20 16:00S 24°09' W 046°19'0 0.0
2017-Jun-20 15:30S 24°09' W 046°20'0 0.0
2017-Jun-20 15:00S 24°09' W 046°20'0 0.0
2017-Jun-20 14:00S 24°09' W 046°19'0 0.0
2017-Jun-20 13:24S 24°09' W 046°19'0 0.1
2017-Jun-20 13:00S 24°09' W 046°20'0 0.0
2017-Jun-20 12:30S 24°09' W 046°19'0 0.0
2017-Jun-20 12:00S 24°09' W 046°19'0 0.0
2017-Jun-20 11:30S 24°09' W 046°19'0 0.0
2017-Jun-20 11:00S 24°09' W 046°19'0 0.1
2017-Jun-20 10:30S 24°09' W 046°19'0 0.0
2017-Jun-20 10:00S 24°09' W 046°19'0 0.1
2017-Jun-20 09:30S 24°09' W 046°19'0 0.0
2017-Jun-20 09:00S 24°09' W 046°19'0 0.0
2017-Jun-20 08:30S 24°09' W 046°19'0 0.0
2017-Jun-20 08:00S 24°09' W 046°19'0 0.0
2017-Jun-20 07:30S 24°09' W 046°19'0 0.0
2017-Jun-20 07:00S 24°09' W 046°19'0 0.0
2017-Jun-20 06:30S 24°09' W 046°19'0 0.0
2017-Jun-20 06:00S 24°09' W 046°19'0 0.0
2017-Jun-20 05:30S 24°09' W 046°19'0 0.1
2017-Jun-20 05:00S 24°09' W 046°19'0 0.0
2017-Jun-20 04:30S 24°09' W 046°19'0 0.0
2017-Jun-20 04:00S 24°09' W 046°19'0 0.0
2017-Jun-20 03:30S 24°09' W 046°19'0 0.0
2017-Jun-20 03:00S 24°09' W 046°19'0 0.0
2017-Jun-20 02:30S 24°09' W 046°19'0 0.0
2017-Jun-20 01:57S 24°09' W 046°19'0 0.0
2017-Jun-20 01:30S 24°09' W 046°19'0 0.0
2017-Jun-20 01:00S 24°09' W 046°20'0 0.0
2017-Jun-20 00:29S 24°09' W 046°20'0 0.0
2017-Jun-19 23:53S 24°09' W 046°20'0 0.0
2017-Jun-19 23:29S 24°09' W 046°20'0 0.0
2017-Jun-19 22:59S 24°09' W 046°20'0 0.0
2017-Jun-19 22:08S 24°09' W 046°20'0 0.1
2017-Jun-19 21:59S 24°09' W 046°20'0 0.0
2017-Jun-19 21:29S 24°09' W 046°20'0 0.1
2017-Jun-19 20:59S 24°09' W 046°19'0 0.0
2017-Jun-19 20:29S 24°09' W 046°19'0 0.1
2017-Jun-19 19:59S 24°09' W 046°20'0 0.0
2017-Jun-19 19:29S 24°09' W 046°20'0 0.0
2017-Jun-19 18:44S 24°09' W 046°19'0 0.0
2017-Jun-19 18:29S 24°09' W 046°19'0 0.0
2017-Jun-19 17:59S 24°09' W 046°19'0 0.0
2017-Jun-19 17:29S 24°09' W 046°19'0 0.0
2017-Jun-19 16:59S 24°09' W 046°19'0 0.0
2017-Jun-19 16:29S 24°09' W 046°19'0 0.0
2017-Jun-19 15:59S 24°09' W 046°19'0 0.0
2017-Jun-19 15:29S 24°09' W 046°19'0 0.0
2017-Jun-19 14:59S 24°09' W 046°19'0 0.0
2017-Jun-19 14:23S 24°09' W 046°19'0 0.0
2017-Jun-19 13:29S 24°09' W 046°19'0 0.1
2017-Jun-19 12:47S 24°09' W 046°19'0 0.1
2017-Jun-19 12:23S 24°09' W 046°19'0 0.1
2017-Jun-19 11:59S 24°09' W 046°19'0 0.0
2017-Jun-19 11:29S 24°09' W 046°19'0 0.2
2017-Jun-19 10:59S 24°09' W 046°19'0 0.1
2017-Jun-19 10:29S 24°09' W 046°19'0 0.0
2017-Jun-19 09:59S 24°09' W 046°19'0 0.0
2017-Jun-19 09:29S 24°09' W 046°19'0 0.0
2017-Jun-19 08:59S 24°09' W 046°19'0 0.0
2017-Jun-19 08:29S 24°09' W 046°19'0 0.0
2017-Jun-19 07:59S 24°09' W 046°19'0 0.0
2017-Jun-19 07:29S 24°09' W 046°19'0 0.0
2017-Jun-19 06:59S 24°09' W 046°19'0 0.0
2017-Jun-19 06:29S 24°09' W 046°19'0 0.0
2017-Jun-19 05:59S 24°09' W 046°20'0 0.0
2017-Jun-19 05:29S 24°09' W 046°20'0 0.0
2017-Jun-19 04:59S 24°09' W 046°20'0 0.0
2017-Jun-19 04:29S 24°09' W 046°20'0 0.0
2017-Jun-19 03:59S 24°09' W 046°20'0 0.0
2017-Jun-19 03:29S 24°09' W 046°20'0 0.1
2017-Jun-19 02:59S 24°09' W 046°19'0 0.1
2017-Jun-19 02:29S 24°09' W 046°19'0 0.1
2017-Jun-19 01:59S 24°09' W 046°19'0 0.1
2017-Jun-19 01:29S 24°09' W 046°20'0 0.1
2017-Jun-19 00:56S 24°09' W 046°20'0 0.1
2017-Jun-19 00:29S 24°09' W 046°20'0 0.0
2017-Jun-18 23:53S 24°09' W 046°20'0 0.1
2017-Jun-18 23:29S 24°09' W 046°20'0 0.1
2017-Jun-18 22:59S 24°09' W 046°20'0 0.1
2017-Jun-18 22:29S 24°09' W 046°20'0 0.2
2017-Jun-18 21:59S 24°09' W 046°20'0 0.1
2017-Jun-18 21:29S 24°09' W 046°20'0 0.0
2017-Jun-18 20:59S 24°09' W 046°20'0 0.0
2017-Jun-18 20:29S 24°09' W 046°20'0 0.0
2017-Jun-18 19:53S 24°09' W 046°20'0 0.0
2017-Jun-18 19:29S 24°09' W 046°20'0 0.0
2017-Jun-18 18:59S 24°09' W 046°20'0 0.1
2017-Jun-18 18:23S 24°09' W 046°20'0 0.1
2017-Jun-18 17:59S 24°09' W 046°20'0 0.1
2017-Jun-18 17:29S 24°09' W 046°19'0 0.1
2017-Jun-18 16:59S 24°09' W 046°19'0 0.1
2017-Jun-18 16:29S 24°09' W 046°19'0 0.1
2017-Jun-18 15:59S 24°09' W 046°19'0 0.0
2017-Jun-18 15:29S 24°09' W 046°20'0 0.0
2017-Jun-18 14:50S 24°09' W 046°20'0 0.0
2017-Jun-18 13:53S 24°09' W 046°20'0 0.1
2017-Jun-18 13:29S 24°09' W 046°20'0 0.1
2017-Jun-18 12:49S 24°09' W 046°20'0 0.0
2017-Jun-18 12:28S 24°09' W 046°20'0 0.0
2017-Jun-18 11:52S 24°09' W 046°20'0 0.1
2017-Jun-18 11:16S 24°09' W 046°20'0 0.1
2017-Jun-18 10:58S 24°09' W 046°19'0 0.0
2017-Jun-18 10:28S 24°09' W 046°19'0 0.1
2017-Jun-18 09:58S 24°09' W 046°20'0 0.0
2017-Jun-18 09:28S 24°09' W 046°20'0 0.0
2017-Jun-18 08:58S 24°09' W 046°20'0 0.0
2017-Jun-18 08:28S 24°09' W 046°20'0 0.0
2017-Jun-18 07:58S 24°09' W 046°20'0 0.0
2017-Jun-18 07:28S 24°09' W 046°20'0 0.1
2017-Jun-18 06:58S 24°09' W 046°20'0 0.1
2017-Jun-18 06:28S 24°09' W 046°20'0 0.0
2017-Jun-18 05:55S 24°09' W 046°20'0 0.1
2017-Jun-18 05:28S 24°09' W 046°20'0 0.0
2017-Jun-18 04:58S 24°09' W 046°20'0 0.0
2017-Jun-18 04:28S 24°09' W 046°20'0 0.1
2017-Jun-18 03:58S 24°09' W 046°20'0 0.0
2017-Jun-18 03:28S 24°09' W 046°20'0 0.0
2017-Jun-18 02:58S 24°09' W 046°20'0 0.0
2017-Jun-18 02:28S 24°09' W 046°20'0 0.0
2017-Jun-18 01:58S 24°09' W 046°20'0 0.0
2017-Jun-18 01:28S 24°09' W 046°20'0 0.0
2017-Jun-18 00:58S 24°09' W 046°20'0 0.0
2017-Jun-18 00:28S 24°09' W 046°20'0 0.0
2017-Jun-17 23:58S 24°09' W 046°20'0 0.0
2017-Jun-17 23:28S 24°09' W 046°20'0 0.0
2017-Jun-17 22:58S 24°09' W 046°20'0 0.0
2017-Jun-17 22:28S 24°09' W 046°20'0 0.0
2017-Jun-17 21:58S 24°09' W 046°20'0 0.0
2017-Jun-17 21:28S 24°09' W 046°20'0 0.0
2017-Jun-17 20:58S 24°09' W 046°20'0 0.0
2017-Jun-17 20:28S 24°09' W 046°20'0 0.0
2017-Jun-17 19:58S 24°09' W 046°20'0 0.0
2017-Jun-17 19:28S 24°09' W 046°20'0 0.0
2017-Jun-17 18:58S 24°09' W 046°20'0 0.0
2017-Jun-17 18:28S 24°09' W 046°20'0 0.0
2017-Jun-17 17:58S 24°09' W 046°20'0 0.0
2017-Jun-17 17:28S 24°09' W 046°20'0 0.0
2017-Jun-17 16:55S 24°09' W 046°20'0 0.0
2017-Jun-17 16:28S 24°09' W 046°20'0 0.0
2017-Jun-17 15:58S 24°09' W 046°20'0 0.0
2017-Jun-17 15:25S 24°09' W 046°20'0 0.0
2017-Jun-17 14:58S 24°09' W 046°20'0 0.0
2017-Jun-17 14:28S 24°09' W 046°20'0 0.0
2017-Jun-17 13:28S 24°09' W 046°20'0 0.0
2017-Jun-17 12:58S 24°09' W 046°20'0 0.0
2017-Jun-17 12:28S 24°09' W 046°20'0 0.0
2017-Jun-17 12:00S 24°09' W 046°20'0 0.0
2017-Jun-17 11:30S 24°09' W 046°20'0 0.0
2017-Jun-17 11:00S 24°09' W 046°20'0 0.0
2017-Jun-17 10:30S 24°09' W 046°20'0 0.0
2017-Jun-17 10:00S 24°09' W 046°20'0 0.0
2017-Jun-17 09:30S 24°09' W 046°20'0 0.0
2017-Jun-17 09:00S 24°09' W 046°20'0 0.0
2017-Jun-17 08:30S 24°09' W 046°20'0 0.0
2017-Jun-17 08:00S 24°09' W 046°20'0 0.0
2017-Jun-17 07:30S 24°09' W 046°20'0 0.0
2017-Jun-17 07:00S 24°09' W 046°20'0 0.0
2017-Jun-17 06:30S 24°09' W 046°20'0 0.0
2017-Jun-17 06:00S 24°09' W 046°20'0 0.0
2017-Jun-17 05:30S 24°09' W 046°20'0 0.0
2017-Jun-17 05:00S 24°09' W 046°20'0 0.0
2017-Jun-17 04:30S 24°09' W 046°20'0 0.0
2017-Jun-17 04:00S 24°09' W 046°20'0 0.0
2017-Jun-17 03:30S 24°09' W 046°20'0 0.0
2017-Jun-17 03:00S 24°09' W 046°20'0 0.0
2017-Jun-17 02:30S 24°09' W 046°20'0 0.0
2017-Jun-17 02:00S 24°09' W 046°20'0 0.1
2017-Jun-17 01:30S 24°09' W 046°20'0 0.0
2017-Jun-17 01:00S 24°09' W 046°20'0 0.0
2017-Jun-17 00:30S 24°09' W 046°20'0 0.0
2017-Jun-17 00:00S 24°09' W 046°20'0 0.0
2017-Jun-16 23:30S 24°09' W 046°20'0 0.0
2017-Jun-16 23:00S 24°09' W 046°20'0 0.0
2017-Jun-16 22:30S 24°09' W 046°20'0 0.0
2017-Jun-16 22:00S 24°09' W 046°20'0 0.0
2017-Jun-16 21:30S 24°09' W 046°20'0 0.0
2017-Jun-16 21:00S 24°09' W 046°20'0 0.0
2017-Jun-16 20:30S 24°09' W 046°20'0 0.0
2017-Jun-16 20:00S 24°09' W 046°20'0 0.0
2017-Jun-16 19:30S 24°09' W 046°20'0 0.0
2017-Jun-16 19:00S 24°09' W 046°20'0 0.0
2017-Jun-16 18:30S 24°09' W 046°20'0 0.0
2017-Jun-16 18:00S 24°09' W 046°20'0 0.0
2017-Jun-16 17:30S 24°09' W 046°20'0 0.0
2017-Jun-16 17:00S 24°09' W 046°20'0 0.0
2017-Jun-16 16:30S 24°09' W 046°20'0 0.0
2017-Jun-16 16:00S 24°09' W 046°20'0 0.0
2017-Jun-16 15:30S 24°09' W 046°20'0 0.1
2017-Jun-16 15:00S 24°09' W 046°20'0 0.1
2017-Jun-16 14:30S 24°09' W 046°19'0 0.0
2017-Jun-16 13:30S 24°09' W 046°19'0 0.0
2017-Jun-16 13:00S 24°09' W 046°19'0 0.0
2017-Jun-16 12:30S 24°09' W 046°19'0 0.1
2017-Jun-16 12:00S 24°09' W 046°19'0 0.0
2017-Jun-16 11:30S 24°09' W 046°19'0 0.0
2017-Jun-16 11:00S 24°09' W 046°19'0 0.1
2017-Jun-16 10:30S 24°09' W 046°19'0 0.0
2017-Jun-16 10:00S 24°09' W 046°19'0 0.0
2017-Jun-16 09:30S 24°09' W 046°19'0 0.0
2017-Jun-16 09:00S 24°09' W 046°19'0 0.0
2017-Jun-16 08:30S 24°09' W 046°19'0 0.0
2017-Jun-16 08:00S 24°09' W 046°19'0 0.0
2017-Jun-16 07:30S 24°09' W 046°19'0 0.0
2017-Jun-16 07:00S 24°09' W 046°19'0 0.0
2017-Jun-16 06:30S 24°09' W 046°19'0 0.0
2017-Jun-16 06:00S 24°09' W 046°19'0 0.1
2017-Jun-16 05:30S 24°09' W 046°20'0 0.2
2017-Jun-16 05:00S 24°09' W 046°20'0 0.1
2017-Jun-16 04:30S 24°09' W 046°20'0 0.0
2017-Jun-16 04:00S 24°09' W 046°20'0 0.0
2017-Jun-16 03:30S 24°09' W 046°20'0 0.0
2017-Jun-16 03:00S 24°09' W 046°20'0 0.0
2017-Jun-16 02:30S 24°09' W 046°20'0 0.0
2017-Jun-16 02:00S 24°09' W 046°20'0 0.0
2017-Jun-16 01:30S 24°09' W 046°20'0 0.0
2017-Jun-16 01:00S 24°09' W 046°20'0 0.1
2017-Jun-16 00:30S 24°09' W 046°20'0 0.0
2017-Jun-16 00:00S 24°09' W 046°20'0 0.0
2017-Jun-15 23:30S 24°09' W 046°20'0 0.1
2017-Jun-15 23:00S 24°09' W 046°20'0 0.1
2017-Jun-15 22:30S 24°09' W 046°20'0 0.2
2017-Jun-15 22:00S 24°09' W 046°20'0 0.0
2017-Jun-15 21:30S 24°09' W 046°20'0 0.1
2017-Jun-15 21:00S 24°09' W 046°20'0 0.0
2017-Jun-15 20:30S 24°09' W 046°20'0 0.0
2017-Jun-15 20:00S 24°09' W 046°20'0 0.0
2017-Jun-15 19:30S 24°09' W 046°20'0 0.1
2017-Jun-15 19:00S 24°09' W 046°20'1 1.3
2017-Jun-15 18:30S 24°09' W 046°20'3 6.2
2017-Jun-15 18:00S 24°06' W 046°22'3 5.3
2017-Jun-15 17:30S 24°04' W 046°21'1 1.6
2017-Jun-15 17:00S 24°03' W 046°20'0 0.1
2017-Jun-15 16:30S 24°03' W 046°20'0 0.0
2017-Jun-15 16:00S 24°03' W 046°20'0 0.0
2017-Jun-15 15:30S 24°03' W 046°20'0 0.0
2017-Jun-15 15:00S 24°03' W 046°20'0 0.0
2017-Jun-15 14:00S 24°03' W 046°20'0 0.0
2017-Jun-15 13:30S 24°03' W 046°20'0 0.0
2017-Jun-15 13:00S 24°03' W 046°20'0 0.0
2017-Jun-15 12:30S 24°03' W 046°20'0 0.0
2017-Jun-15 12:00S 24°03' W 046°20'0 0.7
2017-Jun-15 11:30S 24°03' W 046°20'3 5.6
2017-Jun-15 11:00S 24°04' W 046°17'3 6.4
2017-Jun-15 10:30S 24°07' W 046°14'4 8.9
2017-Jun-15 10:01S 24°10' W 046°11'0 0.7
2017-Jun-15 09:29S 24°10' W 046°11'0 0.0
2017-Jun-15 08:59S 24°10' W 046°11'0 0.0
2017-Jun-15 08:29S 24°10' W 046°11'0 0.0
2017-Jun-15 07:59S 24°10' W 046°11'0 0.0
2017-Jun-15 07:29S 24°10' W 046°11'0 0.0
2017-Jun-15 06:59S 24°10' W 046°11'0 0.0
2017-Jun-15 06:29S 24°10' W 046°11'0 0.0
2017-Jun-15 05:59S 24°10' W 046°11'0 0.0
2017-Jun-15 05:29S 24°10' W 046°11'0 0.0
2017-Jun-15 04:59S 24°10' W 046°11'0 0.0
2017-Jun-15 04:23S 24°10' W 046°11'0 0.0
2017-Jun-15 03:59S 24°10' W 046°11'0 0.0
2017-Jun-15 03:29S 24°10' W 046°11'0 0.0
2017-Jun-15 02:56S 24°10' W 046°11'0 0.0
2017-Jun-15 02:23S 24°10' W 046°11'0 0.0
2017-Jun-15 01:59S 24°10' W 046°11'0 0.0
2017-Jun-15 01:29S 24°10' W 046°11'0 0.0
2017-Jun-15 00:59S 24°10' W 046°11'0 0.0
2017-Jun-15 00:29S 24°10' W 046°11'0 0.0
2017-Jun-14 23:59S 24°10' W 046°11'0 0.0
2017-Jun-14 23:29S 24°10' W 046°11'0 0.0
2017-Jun-14 22:59S 24°10' W 046°11'0 0.0
2017-Jun-14 22:29S 24°10' W 046°11'0 0.0
2017-Jun-14 21:59S 24°10' W 046°11'0 0.0
2017-Jun-14 21:29S 24°10' W 046°11'0 0.0
2017-Jun-14 20:47S 24°10' W 046°11'0 0.0
2017-Jun-14 20:29S 24°10' W 046°11'0 0.0
2017-Jun-14 19:56S 24°10' W 046°11'0 0.0
2017-Jun-14 19:26S 24°10' W 046°11'0 0.0
2017-Jun-14 18:59S 24°10' W 046°11'0 0.0
2017-Jun-14 18:29S 24°10' W 046°11'0 0.0
2017-Jun-14 17:59S 24°10' W 046°11'0 0.0
2017-Jun-14 17:28S 24°10' W 046°11'0 0.0
2017-Jun-14 16:58S 24°10' W 046°11'0 0.0
2017-Jun-14 16:28S 24°10' W 046°11'0 0.0
2017-Jun-14 15:58S 24°10' W 046°11'0 0.0
2017-Jun-14 15:28S 24°10' W 046°11'0 0.0
2017-Jun-14 14:58S 24°10' W 046°11'0 0.0
2017-Jun-14 13:55S 24°10' W 046°11'0 0.0
2017-Jun-14 13:28S 24°10' W 046°11'0 0.0
2017-Jun-14 12:58S 24°10' W 046°11'0 0.0
2017-Jun-14 12:28S 24°10' W 046°11'0 0.0
2017-Jun-14 11:55S 24°10' W 046°11'0 0.0
2017-Jun-14 11:28S 24°10' W 046°11'0 0.0
2017-Jun-14 10:58S 24°10' W 046°11'0 0.0
2017-Jun-14 10:19S 24°10' W 046°11'0 0.0
2017-Jun-14 09:55S 24°10' W 046°11'0 0.0
2017-Jun-14 09:22S 24°10' W 046°11'0 0.1
2017-Jun-14 08:58S 24°10' W 046°11'0 0.0
2017-Jun-14 08:19S 24°10' W 046°11'0 0.0
2017-Jun-14 07:58S 24°10' W 046°11'0 0.0
2017-Jun-14 07:28S 24°10' W 046°11'0 0.1
2017-Jun-14 06:58S 24°10' W 046°11'0 0.1
2017-Jun-14 06:28S 24°10' W 046°11'0 0.0
2017-Jun-14 05:58S 24°10' W 046°11'0 0.1
2017-Jun-14 05:28S 24°10' W 046°11'0 0.0
2017-Jun-14 04:58S 24°10' W 046°11'0 0.0
2017-Jun-14 04:28S 24°10' W 046°11'0 0.0
2017-Jun-14 03:58S 24°10' W 046°11'0 0.0
2017-Jun-14 03:22S 24°10' W 046°11'0 0.1
2017-Jun-14 02:55S 24°10' W 046°11'0 0.0
2017-Jun-14 02:28S 24°10' W 046°11'0 0.0
2017-Jun-14 01:58S 24°10' W 046°11'0 0.1
2017-Jun-14 01:28S 24°10' W 046°11'0 0.1
2017-Jun-14 00:58S 24°10' W 046°11'0 0.1
2017-Jun-14 00:28S 24°10' W 046°11'0 0.1
2017-Jun-13 23:58S 24°10' W 046°11'0 0.2
2017-Jun-13 23:28S 24°10' W 046°11'  
Track history (hours):
 
Tides and Currents Weather Stations Pressure Air Temp Water Temp Dewpoint Dewpoint Depression Visibility Wind Speed Wind Dir Waves Ship Positions

Pretty Lady

Last reported at 2017-Jun-23 23:09 UTC. Time now 2017-Jun-29 11:04 UTC.
Position S 24°17' W 046°01'.

Length 189 m; draft 11.5 m.

Type: Cargo ship. MMSI: 249617000.

Date/timePositionNaut miles runAvg speedWind from/ knotsBaromVisibWave heightAir tempDewpointWater temp
2017-Jun-23 23:09S 24°17' W 046°01'211.7
2017-Jun-23 23:00S 24°17' W 046°02'611.7
2017-Jun-23 22:30S 24°16' W 046°09'611.6
2017-Jun-23 22:00S 24°16' W 046°15'510.9
2017-Jun-23 21:30S 24°15' W 046°21'510.3
2017-Jun-23 21:00S 24°10' W 046°24'611.0
2017-Jun-23 20:30S 24°05' W 046°22'510.2
2017-Jun-23 20:00S 24°00' W 046°20'3 6.8
2017-Jun-23 19:30S 23°58' W 046°18'2 0.1
2017-Jun-22 20:09S 23°57' W 046°19'0 0.0
2017-Jun-22 19:57S 23°57' W 046°19'0 0.0
2017-Jun-22 19:15S 23°57' W 046°19'0 0.0
2017-Jun-22 18:57S 23°57' W 046°19'0 0.0
2017-Jun-22 18:26S 23°57' W 046°19'0 0.0
2017-Jun-22 17:56S 23°57' W 046°19'0 0.0
2017-Jun-22 17:20S 23°57' W 046°19'0 0.0
2017-Jun-22 16:59S 23°57' W 046°19'0 0.0
2017-Jun-22 16:23S 23°57' W 046°19'0 0.0
2017-Jun-22 14:44S 23°57' W 046°19'0 0.0
2017-Jun-22 14:26S 23°57' W 046°19'0 0.0
2017-Jun-22 13:26S 23°57' W 046°19'0 0.5
2017-Jun-22 12:53S 23°57' W 046°19'3 6.7
2017-Jun-22 12:30S 23°59' W 046°17'4 7.5
2017-Jun-22 12:01S 24°01' W 046°21'5 9.2
2017-Jun-22 11:31S 24°05' W 046°22'5 9.5
2017-Jun-22 11:01S 24°10' W 046°20'1 1.1
2017-Jun-22 10:28S 24°09' W 046°20'0 0.0
2017-Jun-22 09:58S 24°09' W 046°20'0 0.0
2017-Jun-22 09:28S 24°09' W 046°20'0 0.0
2017-Jun-22 08:55S 24°09' W 046°20'0 0.0
2017-Jun-22 08:25S 24°09' W 046°20'0 0.0
2017-Jun-22 07:58S 24°09' W 046°20'0 0.0
2017-Jun-22 07:25S 24°09' W 046°20'0 0.0
2017-Jun-22 06:55S 24°09' W 046°20'0 0.0
2017-Jun-22 06:25S 24°09' W 046°20'0 0.0
2017-Jun-22 05:55S 24°09' W 046°20'0 0.0
2017-Jun-22 05:25S 24°09' W 046°20'0 0.0
2017-Jun-22 04:55S 24°09' W 046°20'0 0.0
2017-Jun-22 04:28S 24°09' W 046°20'0 0.1
2017-Jun-22 03:58S 24°09' W 046°20'0 0.0
2017-Jun-22 03:10S 24°09' W 046°20'0 0.1
2017-Jun-22 02:58S 24°09' W 046°20'0 0.0
2017-Jun-22 02:28S 24°09' W 046°20'0 0.0
2017-Jun-22 01:55S 24°09' W 046°20'0 0.0
2017-Jun-22 01:22S 24°09' W 046°20'0 0.0
2017-Jun-22 00:58S 24°09' W 046°20'0 0.0
2017-Jun-22 00:25S 24°09' W 046°20'0 0.0
2017-Jun-21 23:58S 24°09' W 046°20'0 0.0
2017-Jun-21 23:28S 24°09' W 046°20'0 0.0
2017-Jun-21 22:55S 24°09' W 046°20'0 0.0
2017-Jun-21 22:25S 24°09' W 046°20'0 0.0
2017-Jun-21 21:55S 24°09' W 046°20'0 0.0
2017-Jun-21 21:25S 24°09' W 046°20'0 0.0
2017-Jun-21 20:58S 24°09' W 046°20'0 0.0
2017-Jun-21 20:19S 24°09' W 046°20'0 0.0
2017-Jun-21 19:55S 24°09' W 046°20'0 0.0
2017-Jun-21 19:28S 24°09' W 046°20'0 0.0
2017-Jun-21 18:55S 24°09' W 046°20'0 0.0
2017-Jun-21 18:22S 24°09' W 046°20'0 0.0
2017-Jun-21 17:58S 24°09' W 046°20'0 0.1
2017-Jun-21 17:28S 24°09' W 046°20'0 0.0
2017-Jun-21 16:55S 24°09' W 046°20'0 0.0
2017-Jun-21 16:25S 24°09' W 046°20'0 0.0
2017-Jun-21 15:55S 24°09' W 046°20'0 0.1
2017-Jun-21 15:25S 24°09' W 046°20'0 0.0
2017-Jun-21 14:55S 24°09' W 046°20'0 0.1
2017-Jun-21 14:25S 24°09' W 046°20'0 0.0
2017-Jun-21 13:19S 24°09' W 046°20'0 0.1
2017-Jun-21 12:58S 24°09' W 046°20'0 0.0
2017-Jun-21 12:31S 24°09' W 046°20'0 0.2
2017-Jun-21 12:00S 24°09' W 046°20'0 0.0
2017-Jun-21 11:27S 24°09' W 046°20'0 0.0
2017-Jun-21 11:00S 24°09' W 046°20'0 0.1
2017-Jun-21 10:30S 24°09' W 046°19'0 0.1
2017-Jun-21 10:00S 24°09' W 046°20'0 0.0
2017-Jun-21 09:30S 24°09' W 046°20'0 0.0
2017-Jun-21 09:00S 24°09' W 046°20'0 0.0
2017-Jun-21 08:24S 24°09' W 046°20'0 0.1
2017-Jun-21 08:00S 24°09' W 046°20'0 0.0
2017-Jun-21 07:24S 24°09' W 046°20'0 0.0
2017-Jun-21 07:00S 24°09' W 046°20'0 0.0
2017-Jun-21 06:30S 24°09' W 046°20'0 0.0
2017-Jun-21 06:00S 24°09' W 046°20'0 0.1
2017-Jun-21 05:30S 24°09' W 046°20'0 0.0
2017-Jun-21 05:00S 24°09' W 046°20'0 0.0
2017-Jun-21 04:27S 24°09' W 046°20'0 0.0
2017-Jun-21 04:00S 24°09' W 046°20'0 0.0
2017-Jun-21 03:30S 24°09' W 046°20'0 0.0
2017-Jun-21 03:00S 24°09' W 046°20'0 0.0
2017-Jun-21 02:30S 24°09' W 046°20'0 0.0
2017-Jun-21 02:00S 24°09' W 046°20'0 0.0
2017-Jun-21 01:21S 24°09' W 046°19'0 0.1
2017-Jun-21 01:00S 24°09' W 046°20'0 0.1
2017-Jun-21 00:30S 24°09' W 046°19'0 0.0
2017-Jun-20 23:57S 24°09' W 046°19'0 0.0
2017-Jun-20 23:30S 24°09' W 046°19'0 0.0
2017-Jun-20 23:00S 24°09' W 046°20'0 0.0
2017-Jun-20 22:30S 24°09' W 046°19'0 0.0
2017-Jun-20 22:00S 24°09' W 046°19'0 0.0
2017-Jun-20 21:24S 24°09' W 046°19'0 0.0
2017-Jun-20 21:00S 24°09' W 046°19'0 0.0
2017-Jun-20 20:30S 24°09' W 046°19'0 0.0
2017-Jun-20 20:00S 24°09' W 046°19'0 0.0
2017-Jun-20 19:27S 24°09' W 046°19'0 0.0
2017-Jun-20 18:54S 24°09' W 046°19'0 0.0
2017-Jun-20 18:30S 24°09' W 046°19'0 0.0
2017-Jun-20 18:00S 24°09' W 046°19'0 0.0
2017-Jun-20 17:24S 24°09' W 046°19'0 0.0
2017-Jun-20 17:00S 24°09' W 046°19'0 0.0
2017-Jun-20 16:30S 24°09' W 046°19'0 0.0
2017-Jun-20 16:00S 24°09' W 046°19'0 0.0
2017-Jun-20 15:30S 24°09' W 046°20'0 0.0
2017-Jun-20 15:00S 24°09' W 046°20'0 0.0
2017-Jun-20 14:00S 24°09' W 046°19'0 0.0
2017-Jun-20 13:24S 24°09' W 046°19'0 0.1
2017-Jun-20 13:00S 24°09' W 046°20'0 0.0
2017-Jun-20 12:30S 24°09' W 046°19'0 0.0
2017-Jun-20 12:00S 24°09' W 046°19'0 0.0
2017-Jun-20 11:30S 24°09' W 046°19'0 0.0
2017-Jun-20 11:00S 24°09' W 046°19'0 0.1
2017-Jun-20 10:30S 24°09' W 046°19'0 0.0
2017-Jun-20 10:00S 24°09' W 046°19'0 0.1
2017-Jun-20 09:30S 24°09' W 046°19'0 0.0
2017-Jun-20 09:00S 24°09' W 046°19'0 0.0
2017-Jun-20 08:30S 24°09' W 046°19'0 0.0
2017-Jun-20 08:00S 24°09' W 046°19'0 0.0
2017-Jun-20 07:30S 24°09' W 046°19'0 0.0
2017-Jun-20 07:00S 24°09' W 046°19'0 0.0
2017-Jun-20 06:30S 24°09' W 046°19'0 0.0
2017-Jun-20 06:00S 24°09' W 046°19'0 0.0
2017-Jun-20 05:30S 24°09' W 046°19'0 0.1
2017-Jun-20 05:00S 24°09' W 046°19'0 0.0
2017-Jun-20 04:30S 24°09' W 046°19'0 0.0
2017-Jun-20 04:00S 24°09' W 046°19'0 0.0
2017-Jun-20 03:30S 24°09' W 046°19'0 0.0
2017-Jun-20 03:00S 24°09' W 046°19'0 0.0
2017-Jun-20 02:30S 24°09' W 046°19'0 0.0
2017-Jun-20 01:57S 24°09' W 046°19'0 0.0
2017-Jun-20 01:30S 24°09' W 046°19'0 0.0
2017-Jun-20 01:00S 24°09' W 046°20'0 0.0
2017-Jun-20 00:29S 24°09' W 046°20'0 0.0
2017-Jun-19 23:53S 24°09' W 046°20'0 0.0
2017-Jun-19 23:29S 24°09' W 046°20'0 0.0
2017-Jun-19 22:59S 24°09' W 046°20'0 0.0
2017-Jun-19 22:08S 24°09' W 046°20'0 0.1
2017-Jun-19 21:59S 24°09' W 046°20'0 0.0
2017-Jun-19 21:29S 24°09' W 046°20'0 0.1
2017-Jun-19 20:59S 24°09' W 046°19'0 0.0
2017-Jun-19 20:29S 24°09' W 046°19'0 0.1
2017-Jun-19 19:59S 24°09' W 046°20'0 0.0
2017-Jun-19 19:29S 24°09' W 046°20'0 0.0
2017-Jun-19 18:44S 24°09' W 046°19'0 0.0
2017-Jun-19 18:29S 24°09' W 046°19'0 0.0
2017-Jun-19 17:59S 24°09' W 046°19'0 0.0
2017-Jun-19 17:29S 24°09' W 046°19'0 0.0
2017-Jun-19 16:59S 24°09' W 046°19'0 0.0
2017-Jun-19 16:29S 24°09' W 046°19'0 0.0
2017-Jun-19 15:59S 24°09' W 046°19'0 0.0
2017-Jun-19 15:29S 24°09' W 046°19'0 0.0
2017-Jun-19 14:59S 24°09' W 046°19'0 0.0
2017-Jun-19 14:23S 24°09' W 046°19'0 0.0
2017-Jun-19 13:29S 24°09' W 046°19'0 0.1
2017-Jun-19 12:47S 24°09' W 046°19'0 0.1
2017-Jun-19 12:23S 24°09' W 046°19'0 0.1
2017-Jun-19 11:59S 24°09' W 046°19'0 0.0
2017-Jun-19 11:29S 24°09' W 046°19'0 0.2
2017-Jun-19 10:59S 24°09' W 046°19'0 0.1
2017-Jun-19 10:29S 24°09' W 046°19'0 0.0
2017-Jun-19 09:59S 24°09' W 046°19'0 0.0
2017-Jun-19 09:29S 24°09' W 046°19'0 0.0
2017-Jun-19 08:59S 24°09' W 046°19'0 0.0
2017-Jun-19 08:29S 24°09' W 046°19'0 0.0
2017-Jun-19 07:59S 24°09' W 046°19'0 0.0
2017-Jun-19 07:29S 24°09' W 046°19'0 0.0
2017-Jun-19 06:59S 24°09' W 046°19'0 0.0
2017-Jun-19 06:29S 24°09' W 046°19'0 0.0
2017-Jun-19 05:59S 24°09' W 046°20'0 0.0
2017-Jun-19 05:29S 24°09' W 046°20'0 0.0
2017-Jun-19 04:59S 24°09' W 046°20'0 0.0
2017-Jun-19 04:29S 24°09' W 046°20'0 0.0
2017-Jun-19 03:59S 24°09' W 046°20'0 0.0
2017-Jun-19 03:29S 24°09' W 046°20'0 0.1
2017-Jun-19 02:59S 24°09' W 046°19'0 0.1
2017-Jun-19 02:29S 24°09' W 046°19'0 0.1
2017-Jun-19 01:59S 24°09' W 046°19'0 0.1
2017-Jun-19 01:29S 24°09' W 046°20'0 0.1
2017-Jun-19 00:56S 24°09' W 046°20'0 0.1
2017-Jun-19 00:29S 24°09' W 046°20'0 0.0
2017-Jun-18 23:53S 24°09' W 046°20'0 0.1
2017-Jun-18 23:29S 24°09' W 046°20'0 0.1
2017-Jun-18 22:59S 24°09' W 046°20'0 0.1
2017-Jun-18 22:29S 24°09' W 046°20'0 0.2
2017-Jun-18 21:59S 24°09' W 046°20'0 0.1
2017-Jun-18 21:29S 24°09' W 046°20'0 0.0
2017-Jun-18 20:59S 24°09' W 046°20'0 0.0
2017-Jun-18 20:29S 24°09' W 046°20'0 0.0
2017-Jun-18 19:53S 24°09' W 046°20'0 0.0
2017-Jun-18 19:29S 24°09' W 046°20'0 0.0
2017-Jun-18 18:59S 24°09' W 046°20'0 0.1
2017-Jun-18 18:23S 24°09' W 046°20'0 0.1
2017-Jun-18 17:59S 24°09' W 046°20'0 0.1
2017-Jun-18 17:29S 24°09' W 046°19'0 0.1
2017-Jun-18 16:59S 24°09' W 046°19'0 0.1
2017-Jun-18 16:29S 24°09' W 046°19'0 0.1
2017-Jun-18 15:59S 24°09' W 046°19'0 0.0
2017-Jun-18 15:29S 24°09' W 046°20'0 0.0
2017-Jun-18 14:50S 24°09' W 046°20'0 0.0
2017-Jun-18 13:53S 24°09' W 046°20'0 0.1
2017-Jun-18 13:29S 24°09' W 046°20'0 0.1
2017-Jun-18 12:49S 24°09' W 046°20'0 0.0
2017-Jun-18 12:28S 24°09' W 046°20'0 0.0
2017-Jun-18 11:52S 24°09' W 046°20'0 0.1
2017-Jun-18 11:16S 24°09' W 046°20'0 0.1
2017-Jun-18 10:58S 24°09' W 046°19'0 0.0
2017-Jun-18 10:28S 24°09' W 046°19'0 0.1
2017-Jun-18 09:58S 24°09' W 046°20'0 0.0
2017-Jun-18 09:28S 24°09' W 046°20'0 0.0
2017-Jun-18 08:58S 24°09' W 046°20'0 0.0
2017-Jun-18 08:28S 24°09' W 046°20'0 0.0
2017-Jun-18 07:58S 24°09' W 046°20'0 0.0
2017-Jun-18 07:28S 24°09' W 046°20'0 0.1
2017-Jun-18 06:58S 24°09' W 046°20'0 0.1
2017-Jun-18 06:28S 24°09' W 046°20'0 0.0
2017-Jun-18 05:55S 24°09' W 046°20'0 0.1
2017-Jun-18 05:28S 24°09' W 046°20'0 0.0
2017-Jun-18 04:58S 24°09' W 046°20'0 0.0
2017-Jun-18 04:28S 24°09' W 046°20'0 0.1
2017-Jun-18 03:58S 24°09' W 046°20'0 0.0
2017-Jun-18 03:28S 24°09' W 046°20'0 0.0
2017-Jun-18 02:58S 24°09' W 046°20'0 0.0
2017-Jun-18 02:28S 24°09' W 046°20'0 0.0
2017-Jun-18 01:58S 24°09' W 046°20'0 0.0
2017-Jun-18 01:28S 24°09' W 046°20'0 0.0
2017-Jun-18 00:58S 24°09' W 046°20'0 0.0
2017-Jun-18 00:28S 24°09' W 046°20'0 0.0
2017-Jun-17 23:58S 24°09' W 046°20'0 0.0
2017-Jun-17 23:28S 24°09' W 046°20'0 0.0
2017-Jun-17 22:58S 24°09' W 046°20'0 0.0
2017-Jun-17 22:28S 24°09' W 046°20'0 0.0
2017-Jun-17 21:58S 24°09' W 046°20'0 0.0
2017-Jun-17 21:28S 24°09' W 046°20'0 0.0
2017-Jun-17 20:58S 24°09' W 046°20'0 0.0
2017-Jun-17 20:28S 24°09' W 046°20'0 0.0
2017-Jun-17 19:58S 24°09' W 046°20'0 0.0
2017-Jun-17 19:28S 24°09' W 046°20'0 0.0
2017-Jun-17 18:58S 24°09' W 046°20'0 0.0
2017-Jun-17 18:28S 24°09' W 046°20'0 0.0
2017-Jun-17 17:58S 24°09' W 046°20'0 0.0
2017-Jun-17 17:28S 24°09' W 046°20'0 0.0
2017-Jun-17 16:55S 24°09' W 046°20'0 0.0
2017-Jun-17 16:28S 24°09' W 046°20'0 0.0
2017-Jun-17 15:58S 24°09' W 046°20'0 0.0
2017-Jun-17 15:25S 24°09' W 046°20'0 0.0
2017-Jun-17 14:58S 24°09' W 046°20'0 0.0
2017-Jun-17 14:28S 24°09' W 046°20'0 0.0
2017-Jun-17 13:28S 24°09' W 046°20'0 0.0
2017-Jun-17 12:58S 24°09' W 046°20'0 0.0
2017-Jun-17 12:28S 24°09' W 046°20'0 0.0
2017-Jun-17 12:00S 24°09' W 046°20'0 0.0
2017-Jun-17 11:30S 24°09' W 046°20'0 0.0
2017-Jun-17 11:00S 24°09' W 046°20'0 0.0
2017-Jun-17 10:30S 24°09' W 046°20'0 0.0
2017-Jun-17 10:00S 24°09' W 046°20'0 0.0
2017-Jun-17 09:30S 24°09' W 046°20'0 0.0
2017-Jun-17 09:00S 24°09' W 046°20'0 0.0
2017-Jun-17 08:30S 24°09' W 046°20'0 0.0
2017-Jun-17 08:00S 24°09' W 046°20'0 0.0
2017-Jun-17 07:30S 24°09' W 046°20'0 0.0
2017-Jun-17 07:00S 24°09' W 046°20'0 0.0
2017-Jun-17 06:30S 24°09' W 046°20'0 0.0
2017-Jun-17 06:00S 24°09' W 046°20'0 0.0
2017-Jun-17 05:30S 24°09' W 046°20'0 0.0
2017-Jun-17 05:00S 24°09' W 046°20'0 0.0
2017-Jun-17 04:30S 24°09' W 046°20'0 0.0
2017-Jun-17 04:00S 24°09' W 046°20'0 0.0
2017-Jun-17 03:30S 24°09' W 046°20'0 0.0
2017-Jun-17 03:00S 24°09' W 046°20'0 0.0
2017-Jun-17 02:30S 24°09' W 046°20'0 0.0
2017-Jun-17 02:00S 24°09' W 046°20'0 0.1
2017-Jun-17 01:30S 24°09' W 046°20'0 0.0
2017-Jun-17 01:00S 24°09' W 046°20'0 0.0
2017-Jun-17 00:30S 24°09' W 046°20'0 0.0
2017-Jun-17 00:00S 24°09' W 046°20'0 0.0
2017-Jun-16 23:30S 24°09' W 046°20'0 0.0
2017-Jun-16 23:00S 24°09' W 046°20'0 0.0
2017-Jun-16 22:30S 24°09' W 046°20'0 0.0
2017-Jun-16 22:00S 24°09' W 046°20'0 0.0
2017-Jun-16 21:30S 24°09' W 046°20'0 0.0
2017-Jun-16 21:00S 24°09' W 046°20'0 0.0
2017-Jun-16 20:30S 24°09' W 046°20'0 0.0
2017-Jun-16 20:00S 24°09' W 046°20'0 0.0
2017-Jun-16 19:30S 24°09' W 046°20'0 0.0
2017-Jun-16 19:00S 24°09' W 046°20'0 0.0
2017-Jun-16 18:30S 24°09' W 046°20'0 0.0
2017-Jun-16 18:00S 24°09' W 046°20'0 0.0
2017-Jun-16 17:30S 24°09' W 046°20'0 0.0
2017-Jun-16 17:00S 24°09' W 046°20'0 0.0
2017-Jun-16 16:30S 24°09' W 046°20'0 0.0
2017-Jun-16 16:00S 24°09' W 046°20'0 0.0
2017-Jun-16 15:30S 24°09' W 046°20'0 0.1
2017-Jun-16 15:00S 24°09' W 046°20'0 0.1
2017-Jun-16 14:30S 24°09' W 046°19'0 0.0
2017-Jun-16 13:30S 24°09' W 046°19'0 0.0
2017-Jun-16 13:00S 24°09' W 046°19'0 0.0
2017-Jun-16 12:30S 24°09' W 046°19'0 0.1
2017-Jun-16 12:00S 24°09' W 046°19'0 0.0
2017-Jun-16 11:30S 24°09' W 046°19'0 0.0
2017-Jun-16 11:00S 24°09' W 046°19'0 0.1
2017-Jun-16 10:30S 24°09' W 046°19'0 0.0
2017-Jun-16 10:00S 24°09' W 046°19'0 0.0
2017-Jun-16 09:30S 24°09' W 046°19'0 0.0
2017-Jun-16 09:00S 24°09' W 046°19'0 0.0
2017-Jun-16 08:30S 24°09' W 046°19'0 0.0
2017-Jun-16 08:00S 24°09' W 046°19'0 0.0
2017-Jun-16 07:30S 24°09' W 046°19'0 0.0
2017-Jun-16 07:00S 24°09' W 046°19'0 0.0
2017-Jun-16 06:30S 24°09' W 046°19'0 0.0
2017-Jun-16 06:00S 24°09' W 046°19'0 0.1
2017-Jun-16 05:30S 24°09' W 046°20'0 0.2
2017-Jun-16 05:00S 24°09' W 046°20'0 0.1
2017-Jun-16 04:30S 24°09' W 046°20'0 0.0
2017-Jun-16 04:00S 24°09' W 046°20'0 0.0
2017-Jun-16 03:30S 24°09' W 046°20'0 0.0
2017-Jun-16 03:00S 24°09' W 046°20'0 0.0
2017-Jun-16 02:30S 24°09' W 046°20'0 0.0
2017-Jun-16 02:00S 24°09' W 046°20'0 0.0
2017-Jun-16 01:30S 24°09' W 046°20'0 0.0
2017-Jun-16 01:00S 24°09' W 046°20'0 0.1
2017-Jun-16 00:30S 24°09' W 046°20'0 0.0
2017-Jun-16 00:00S 24°09' W 046°20'0 0.0
2017-Jun-15 23:30S 24°09' W 046°20'0 0.1
2017-Jun-15 23:00S 24°09' W 046°20'0 0.1
2017-Jun-15 22:30S 24°09' W 046°20'0 0.2
2017-Jun-15 22:00S 24°09' W 046°20'0 0.0
2017-Jun-15 21:30S 24°09' W 046°20'0 0.1
2017-Jun-15 21:00S 24°09' W 046°20'0 0.0
2017-Jun-15 20:30S 24°09' W 046°20'0 0.0
2017-Jun-15 20:00S 24°09' W 046°20'0 0.0
2017-Jun-15 19:30S 24°09' W 046°20'0 0.1
2017-Jun-15 19:00S 24°09' W 046°20'1 1.3
2017-Jun-15 18:30S 24°09' W 046°20'3 6.2
2017-Jun-15 18:00S 24°06' W 046°22'3 5.3
2017-Jun-15 17:30S 24°04' W 046°21'1 1.6
2017-Jun-15 17:00S 24°03' W 046°20'0 0.1
2017-Jun-15 16:30S 24°03' W 046°20'0 0.0
2017-Jun-15 16:00S 24°03' W 046°20'0 0.0
2017-Jun-15 15:30S 24°03' W 046°20'0 0.0
2017-Jun-15 15:00S 24°03' W 046°20'0 0.0
2017-Jun-15 14:00S 24°03' W 046°20'0 0.0
2017-Jun-15 13:30S 24°03' W 046°20'0 0.0
2017-Jun-15 13:00S 24°03' W 046°20'0 0.0
2017-Jun-15 12:30S 24°03' W 046°20'0 0.0
2017-Jun-15 12:00S 24°03' W 046°20'0 0.7
2017-Jun-15 11:30S 24°03' W 046°20'3 5.6
2017-Jun-15 11:00S 24°04' W 046°17'3 6.4
2017-Jun-15 10:30S 24°07' W 046°14'4 8.9
2017-Jun-15 10:01S 24°10' W 046°11'0 0.7
2017-Jun-15 09:29S 24°10' W 046°11'0 0.0
2017-Jun-15 08:59S 24°10' W 046°11'0 0.0
2017-Jun-15 08:29S 24°10' W 046°11'0 0.0
2017-Jun-15 07:59S 24°10' W 046°11'0 0.0
2017-Jun-15 07:29S 24°10' W 046°11'0 0.0
2017-Jun-15 06:59S 24°10' W 046°11'0 0.0
2017-Jun-15 06:29S 24°10' W 046°11'0 0.0
2017-Jun-15 05:59S 24°10' W 046°11'0 0.0
2017-Jun-15 05:29S 24°10' W 046°11'0 0.0
2017-Jun-15 04:59S 24°10' W 046°11'0 0.0
2017-Jun-15 04:23S 24°10' W 046°11'0 0.0
2017-Jun-15 03:59S 24°10' W 046°11'0 0.0
2017-Jun-15 03:29S 24°10' W 046°11'0 0.0
2017-Jun-15 02:56S 24°10' W 046°11'0 0.0
2017-Jun-15 02:23S 24°10' W 046°11'0 0.0
2017-Jun-15 01:59S 24°10' W 046°11'0 0.0
2017-Jun-15 01:29S 24°10' W 046°11'0 0.0
2017-Jun-15 00:59S 24°10' W 046°11'0 0.0
2017-Jun-15 00:29S 24°10' W 046°11'0 0.0
2017-Jun-14 23:59S 24°10' W 046°11'0 0.0
2017-Jun-14 23:29S 24°10' W 046°11'0 0.0
2017-Jun-14 22:59S 24°10' W 046°11'0 0.0
2017-Jun-14 22:29S 24°10' W 046°11'0 0.0
2017-Jun-14 21:59S 24°10' W 046°11'0 0.0
2017-Jun-14 21:29S 24°10' W 046°11'0 0.0
2017-Jun-14 20:47S 24°10' W 046°11'0 0.0
2017-Jun-14 20:29S 24°10' W 046°11'0 0.0
2017-Jun-14 19:56S 24°10' W 046°11'0 0.0
2017-Jun-14 19:26S 24°10' W 046°11'0 0.0
2017-Jun-14 18:59S 24°10' W 046°11'0 0.0
2017-Jun-14 18:29S 24°10' W 046°11'0 0.0
2017-Jun-14 17:59S 24°10' W 046°11'0 0.0
2017-Jun-14 17:28S 24°10' W 046°11'0 0.0
2017-Jun-14 16:58S 24°10' W 046°11'0 0.0
2017-Jun-14 16:28S 24°10' W 046°11'0 0.0
2017-Jun-14 15:58S 24°10' W 046°11'0 0.0
2017-Jun-14 15:28S 24°10' W 046°11'0 0.0
2017-Jun-14 14:58S 24°10' W 046°11'0 0.0
2017-Jun-14 13:55S 24°10' W 046°11'0 0.0
2017-Jun-14 13:28S 24°10' W 046°11'0 0.0
2017-Jun-14 12:58S 24°10' W 046°11'0 0.0
2017-Jun-14 12:28S 24°10' W 046°11'0 0.0
2017-Jun-14 11:55S 24°10' W 046°11'0 0.0
2017-Jun-14 11:28S 24°10' W 046°11'0 0.0
2017-Jun-14 10:58S 24°10' W 046°11'0 0.0
2017-Jun-14 10:19S 24°10' W 046°11'0 0.0
2017-Jun-14 09:55S 24°10' W 046°11'0 0.0
2017-Jun-14 09:22S 24°10' W 046°11'0 0.1
2017-Jun-14 08:58S 24°10' W 046°11'0 0.0
2017-Jun-14 08:19S 24°10' W 046°11'0 0.0
2017-Jun-14 07:58S 24°10' W 046°11'0 0.0
2017-Jun-14 07:28S 24°10' W 046°11'0 0.1
2017-Jun-14 06:58S 24°10' W 046°11'0 0.1
2017-Jun-14 06:28S 24°10' W 046°11'0 0.0
2017-Jun-14 05:58S 24°10' W 046°11'0 0.1
2017-Jun-14 05:28S 24°10' W 046°11'0 0.0
2017-Jun-14 04:58S 24°10' W 046°11'0 0.0
2017-Jun-14 04:28S 24°10' W 046°11'0 0.0
2017-Jun-14 03:58S 24°10' W 046°11'0 0.0
2017-Jun-14 03:22S 24°10' W 046°11'0 0.1
2017-Jun-14 02:55S 24°10' W 046°11'0 0.0
2017-Jun-14 02:28S 24°10' W 046°11'0 0.0
2017-Jun-14 01:58S 24°10' W 046°11'0 0.1
2017-Jun-14 01:28S 24°10' W 046°11'0 0.1
2017-Jun-14 00:58S 24°10' W 046°11'0 0.1
2017-Jun-14 00:28S 24°10' W 046°11'0 0.1
2017-Jun-13 23:58S 24°10' W 046°11'0 0.2
2017-Jun-13 23:28S 24°10' W 046°11'  

Dump ship's entire track history